createdAt,value
2023-04-10T00:00:13.308Z,3.50
2023-04-10T00:05:16.255Z,3.07
2023-04-10T00:10:18.221Z,2.83
2023-04-10T00:15:20.145Z,3.63
2023-04-10T00:20:23.160Z,3.20
2023-04-10T00:25:26.426Z,2.87
2023-04-10T00:30:28.496Z,3.33
2023-04-10T00:35:30.607Z,3.37
2023-04-10T00:40:32.598Z,3.50
2023-04-10T00:45:34.573Z,3.20
2023-04-10T00:50:36.590Z,3.13
2023-04-10T00:55:38.446Z,3.30
2023-04-10T01:00:41.378Z,3.43
2023-04-10T01:06:01.464Z,3.57
2023-04-10T01:11:22.094Z,2.87
2023-04-10T01:16:23.909Z,3.07
2023-04-10T01:21:28.018Z,3.63
2023-04-10T01:27:07.738Z,3.03
2023-04-10T01:32:13.076Z,3.00
2023-04-10T01:37:41.884Z,3.50
2023-04-10T01:42:53.363Z,3.40
2023-04-10T01:47:58.933Z,3.30
2023-04-10T01:53:02.746Z,3.77
2023-04-10T01:58:06.180Z,3.77
2023-04-10T02:03:08.830Z,3.23
2023-04-10T02:08:21.931Z,2.60
2023-04-10T02:13:27.730Z,3.10
2023-04-10T02:18:31.552Z,3.47
2023-04-10T02:23:35.824Z,3.20
2023-04-10T02:28:40.405Z,2.97
2023-04-10T02:33:42.225Z,3.57
2023-04-10T02:38:44.052Z,3.60
2023-04-10T02:43:47.768Z,3.40
2023-04-10T02:48:49.759Z,3.57
2023-04-10T02:53:53.358Z,3.17
2023-04-10T02:59:03.814Z,3.10
2023-04-10T03:04:06.673Z,3.33
2023-04-10T03:09:13.291Z,3.83
2023-04-10T03:14:15.623Z,3.00
2023-04-10T03:19:17.537Z,3.43
2023-04-10T03:24:19.580Z,4.07
2023-04-10T03:29:21.505Z,3.93
2023-04-10T03:34:23.468Z,4.40
2023-04-10T03:39:25.584Z,4.17
2023-04-10T03:44:28.721Z,3.80
2023-04-10T03:49:30.617Z,3.47
2023-04-10T03:54:38.960Z,3.50
2023-04-10T03:59:42.180Z,3.33
2023-04-10T04:04:48.837Z,4.10
2023-04-10T04:10:13.912Z,3.67
2023-04-10T04:15:42.613Z,3.93
2023-04-10T04:20:53.680Z,3.20
2023-04-10T04:26:14.582Z,3.67
2023-04-10T04:31:38.041Z,3.50
2023-04-10T04:37:06.178Z,3.50
2023-04-10T04:42:31.712Z,3.10
2023-04-10T04:47:59.989Z,3.33
2023-04-10T04:53:09.946Z,3.10
2023-04-10T04:58:24.589Z,4.13
2023-04-10T05:03:35.898Z,3.70
2023-04-10T05:08:56.628Z,3.63
2023-04-10T05:14:27.760Z,3.53
2023-04-10T05:19:53.555Z,4.10
2023-04-10T05:25:15.443Z,3.30
2023-04-10T05:30:35.779Z,3.53
2023-04-10T05:36:07.401Z,3.30
2023-04-10T05:41:26.225Z,4.20
2023-04-10T05:46:54.338Z,3.73
2023-04-10T05:52:28.494Z,3.53
2023-04-10T05:58:01.586Z,4.03
2023-04-10T06:03:30.866Z,5.00
2023-04-10T06:08:36.341Z,4.47
2023-04-10T06:13:38.565Z,4.10
2023-04-10T06:18:41.529Z,4.57
2023-04-10T06:23:45.304Z,4.50
2023-04-10T06:28:47.287Z,4.87
2023-04-10T06:33:51.088Z,4.07
2023-04-10T06:38:53.689Z,4.30
2023-04-10T06:43:55.931Z,5.27
2023-04-10T06:48:58.000Z,5.10
2023-04-10T06:54:00.003Z,5.00
2023-04-10T06:59:02.046Z,4.47
2023-04-10T07:04:04.196Z,3.83
2023-04-10T07:09:06.190Z,3.90
2023-04-10T07:14:08.257Z,4.10
2023-04-10T07:19:10.429Z,4.07
2023-04-10T07:24:12.396Z,4.10
2023-04-10T07:29:14.578Z,2.60
2023-04-10T07:34:16.488Z,3.37
2023-04-10T07:39:18.602Z,2.77
2023-04-10T07:44:20.836Z,3.17
2023-04-10T07:49:23.341Z,3.47
2023-04-10T07:54:25.656Z,3.00
2023-04-10T07:59:28.843Z,3.80
2023-04-10T08:04:31.268Z,2.40
2023-04-10T08:09:33.247Z,4.10
2023-04-10T08:14:35.327Z,3.53
2023-04-10T08:19:37.394Z,2.87
2023-04-10T08:24:39.507Z,3.50
2023-04-10T08:29:41.678Z,3.13
2023-04-10T08:34:43.714Z,2.97
2023-04-10T08:39:46.000Z,3.20
2023-04-10T08:44:49.517Z,2.90
2023-04-10T08:49:56.902Z,3.50
2023-04-10T08:55:01.953Z,3.40
2023-04-10T09:00:12.723Z,2.90
2023-04-10T09:05:27.359Z,3.50
2023-04-10T09:10:47.712Z,2.80
2023-04-10T09:16:00.618Z,3.10
2023-04-10T09:21:10.935Z,3.00
2023-04-10T09:26:36.629Z,2.30
2023-04-10T09:31:40.178Z,2.40
2023-04-10T09:36:57.437Z,2.50
2023-04-10T09:41:59.730Z,2.93
2023-04-10T09:47:13.788Z,2.30
2023-04-10T09:52:20.071Z,2.27
2023-04-10T09:57:23.301Z,1.90
2023-04-10T10:02:29.170Z,1.60
2023-04-10T10:07:32.160Z,1.93
2023-04-10T10:12:59.865Z,1.63
2023-04-10T10:18:26.850Z,1.60
2023-04-10T10:23:29.118Z,1.60
2023-04-10T10:28:32.946Z,1.60
2023-04-10T10:33:41.838Z,1.53
2023-04-10T10:39:13.553Z,1.63
2023-04-10T10:44:59.447Z,1.70
2023-04-10T10:50:03.141Z,2.50
2023-04-10T10:55:23.886Z,1.80
2023-04-10T11:00:27.485Z,1.83
2023-04-10T11:05:52.474Z,1.67
2023-04-10T11:11:05.980Z,1.50
2023-04-10T11:16:12.681Z,2.07
2023-04-10T11:21:23.905Z,1.50
2023-04-10T11:26:44.058Z,1.60
2023-04-10T11:31:47.699Z,1.83
2023-04-10T11:36:49.908Z,1.80
2023-04-10T11:41:53.246Z,1.67
2023-04-10T11:46:55.166Z,1.93
2023-04-10T11:51:57.185Z,1.30
2023-04-10T11:57:17.422Z,1.50
2023-04-10T12:02:19.393Z,1.20
2023-04-10T12:07:24.042Z,0.90
2023-04-10T12:12:52.470Z,0.90
2023-04-10T12:17:55.569Z,1.20
2023-04-10T12:23:01.401Z,1.13
2023-04-10T12:28:03.198Z,1.07
2023-04-10T12:33:07.482Z,0.90
2023-04-10T12:38:09.352Z,1.00
2023-04-10T12:43:11.278Z,0.70
2023-04-10T12:48:22.488Z,0.80
2023-04-10T12:53:25.443Z,0.70
2023-04-10T12:58:28.288Z,0.83
2023-04-10T13:03:30.856Z,0.60
2023-04-10T13:08:33.240Z,0.80
2023-04-10T13:13:35.533Z,1.20
2023-04-10T13:18:37.315Z,0.77
2023-04-10T13:23:39.384Z,0.67
2023-04-10T13:28:41.240Z,0.70
2023-04-10T13:33:49.357Z,0.70
2023-04-10T13:38:51.249Z,0.70
2023-04-10T13:43:53.448Z,0.70
2023-04-10T13:48:55.888Z,0.90
2023-04-10T13:53:58.856Z,0.60
2023-04-10T13:59:00.756Z,0.73
2023-04-10T14:04:03.400Z,0.67
2023-04-10T14:09:05.286Z,0.80
2023-04-10T14:14:07.140Z,0.73
2023-04-10T14:19:09.000Z,0.60
2023-04-10T14:24:11.267Z,0.80
2023-04-10T14:29:14.784Z,0.90
2023-04-10T14:34:18.899Z,0.87
2023-04-10T14:39:20.666Z,0.80
2023-04-10T14:44:22.480Z,0.97
2023-04-10T14:49:24.464Z,0.80
2023-04-10T14:54:26.361Z,1.03
2023-04-10T14:59:28.373Z,1.10
2023-04-10T15:04:30.387Z,0.90
2023-04-10T15:09:32.618Z,0.70
2023-04-10T15:14:34.623Z,0.70
2023-04-10T15:19:36.419Z,0.80
2023-04-10T15:24:50.101Z,0.70
2023-04-10T15:29:52.607Z,1.10
2023-04-10T15:34:54.465Z,1.00
2023-04-10T15:39:56.307Z,1.13
2023-04-10T15:44:58.109Z,0.97
2023-04-10T15:50:00.004Z,0.80
2023-04-10T15:55:01.889Z,0.50
2023-04-10T16:00:04.507Z,0.80
2023-04-10T16:05:08.967Z,0.90
2023-04-10T16:10:11.499Z,1.10
2023-04-10T16:15:13.816Z,0.90
2023-04-10T16:20:15.801Z,1.00
2023-04-10T16:25:19.557Z,1.00
2023-04-10T16:30:24.023Z,1.30
2023-04-10T16:35:26.020Z,1.20
2023-04-10T16:40:32.487Z,1.40
2023-04-10T16:45:34.733Z,1.40
2023-04-10T16:50:36.910Z,1.30
2023-04-10T16:55:38.861Z,1.20
2023-04-10T17:00:40.936Z,1.30
2023-04-10T17:05:42.925Z,1.50
2023-04-10T17:10:44.870Z,1.10
2023-04-10T17:15:46.781Z,1.23
2023-04-10T17:20:49.065Z,1.40
2023-04-10T17:25:51.121Z,1.53
2023-04-10T17:30:52.999Z,1.47
2023-04-10T17:35:55.686Z,1.40
2023-04-10T17:40:57.681Z,1.13
2023-04-10T17:46:00.147Z,1.17
2023-04-10T17:51:06.924Z,1.40
2023-04-10T17:56:16.757Z,1.60
2023-04-10T18:01:29.486Z,1.40
2023-04-10T18:06:31.918Z,1.80
2023-04-10T18:11:33.884Z,2.13
2023-04-10T18:16:36.119Z,2.67
2023-04-10T18:21:38.242Z,3.00
2023-04-10T18:26:40.790Z,2.00
2023-04-10T18:31:42.770Z,2.60
2023-04-10T18:36:44.751Z,2.70
2023-04-10T18:41:46.701Z,2.60
2023-04-10T18:46:57.406Z,2.20
2023-04-10T18:52:00.439Z,2.13
2023-04-10T18:57:02.419Z,2.67
2023-04-10T19:02:05.948Z,3.20
2023-04-10T19:07:10.706Z,2.57
2023-04-10T19:12:12.710Z,2.40
2023-04-10T19:17:14.621Z,2.40
2023-04-10T19:22:17.138Z,2.00
2023-04-10T19:27:19.141Z,2.27
2023-04-10T19:32:21.074Z,3.10
2023-04-10T19:37:23.077Z,3.80
2023-04-10T19:42:25.067Z,3.37
2023-04-10T19:47:27.082Z,2.70
2023-04-10T19:52:28.964Z,2.90
2023-04-10T19:57:30.960Z,2.47
2023-04-10T20:02:33.314Z,2.47
2023-04-10T20:07:35.782Z,2.53
2023-04-10T20:12:37.846Z,2.80
2023-04-10T20:17:39.896Z,3.60
2023-04-10T20:22:41.914Z,2.47
2023-04-10T20:27:43.826Z,2.53
2023-04-10T20:32:46.978Z,2.43
2023-04-10T20:37:49.235Z,8.13
2023-04-10T20:42:52.784Z,6.40
2023-04-10T20:47:57.376Z,2.80
2023-04-10T20:52:59.470Z,2.73
2023-04-10T20:58:01.425Z,3.70
2023-04-10T21:03:03.483Z,2.20
2023-04-10T21:08:05.633Z,2.60
2023-04-10T21:13:07.510Z,2.47
2023-04-10T21:18:09.718Z,2.23
2023-04-10T21:23:11.585Z,2.40
2023-04-10T21:28:13.564Z,3.27
2023-04-10T21:33:15.749Z,2.20
2023-04-10T21:38:17.770Z,2.53
2023-04-10T21:43:21.007Z,2.03
2023-04-10T21:48:23.203Z,1.97
2023-04-10T21:53:25.410Z,2.20
2023-04-10T21:58:27.322Z,2.27
2023-04-10T22:03:29.887Z,1.80
2023-04-10T22:08:31.834Z,1.50
2023-04-10T22:13:33.766Z,1.43
2023-04-10T22:18:35.709Z,2.10
2023-04-10T22:23:37.586Z,1.80
2023-04-10T22:28:39.406Z,2.50
2023-04-10T22:33:41.267Z,2.20
2023-04-10T22:38:43.371Z,2.13
2023-04-10T22:43:45.267Z,2.20
2023-04-10T22:48:47.191Z,1.90
2023-04-10T22:53:49.059Z,2.10
2023-04-10T22:58:51.004Z,1.80
2023-04-10T23:03:53.996Z,1.90
2023-04-10T23:08:56.270Z,2.17
2023-04-10T23:20:02.906Z,2.30
2023-04-10T23:25:05.270Z,3.00
2023-04-10T23:30:17.617Z,2.10
2023-04-10T23:35:19.596Z,2.17
2023-04-10T23:40:53.770Z,2.40
2023-04-10T23:45:55.707Z,1.90
2023-04-10T23:51:08.500Z,1.83
2023-04-10T23:56:10.832Z,2.20
